sensor_id;sensor_type;location;lat;lon;timestamp;pressure;altitude;pressure_sealevel;temperature;humidity
40155;BME280;25875;48.202;16.334;2023-02-04T00:02:26;99108.66;;;5.20;66.28
40155;BME280;25875;48.202;16.334;2023-02-04T00:04:53;99106.03;;;5.20;66.25
40155;BME280;25875;48.202;16.334;2023-02-04T00:07:21;99107.75;;;5.21;66.45
40155;BME280;25875;48.202;16.334;2023-02-04T00:09:48;99094.56;;;5.22;66.42
40155;BME280;25875;48.202;16.334;2023-02-04T00:12:15;99098.91;;;5.23;66.26
40155;BME280;25875;48.202;16.334;2023-02-04T00:14:42;99109.41;;;5.23;66.40
40155;BME280;25875;48.202;16.334;2023-02-04T00:17:09;99091.00;;;5.23;66.11
40155;BME280;25875;48.202;16.334;2023-02-04T00:19:38;99106.78;;;5.23;66.10
40155;BME280;25875;48.202;16.334;2023-02-04T00:22:05;99103.22;;;5.24;65.99
40155;BME280;25875;48.202;16.334;2023-02-04T00:24:34;99113.69;;;5.26;65.75
40155;BME280;25875;48.202;16.334;2023-02-04T00:27:02;99108.38;;;5.27;65.79
40155;BME280;25875;48.202;16.334;2023-02-04T00:29:29;99107.56;;;5.25;65.50
40155;BME280;25875;48.202;16.334;2023-02-04T00:31:56;99095.22;;;5.27;65.40
40155;BME280;25875;48.202;16.334;2023-02-04T00:34:23;99096.88;;;5.30;64.91
40155;BME280;25875;48.202;16.334;2023-02-04T00:36:50;99080.28;;;5.29;64.68
40155;BME280;25875;48.202;16.334;2023-02-04T00:39:16;99088.91;;;5.33;64.50
40155;BME280;25875;48.202;16.334;2023-02-04T00:41:45;99096.78;;;5.33;64.28
40155;BME280;25875;48.202;16.334;2023-02-04T00:44:12;99090.59;;;5.34;64.17
40155;BME280;25875;48.202;16.334;2023-02-04T00:46:39;99083.56;;;5.34;64.19
40155;BME280;25875;48.202;16.334;2023-02-04T00:49:06;99073.13;;;5.33;63.89
40155;BME280;25875;48.202;16.334;2023-02-04T00:51:36;99063.53;;;5.32;63.45
40155;BME280;25875;48.202;16.334;2023-02-04T00:54:03;99083.63;;;5.33;63.43
40155;BME280;25875;48.202;16.334;2023-02-04T00:56:30;99054.66;;;5.34;62.69
40155;BME280;25875;48.202;16.334;2023-02-04T00:58:58;99057.25;;;5.36;62.87
40155;BME280;25875;48.202;16.334;2023-02-04T01:01:25;99055.47;;;5.36;62.84
40155;BME280;25875;48.202;16.334;2023-02-04T01:03:52;99045.81;;;5.37;62.19
40155;BME280;25875;48.202;16.334;2023-02-04T01:06:18;99049.28;;;5.37;62.45
40155;BME280;25875;48.202;16.334;2023-02-04T01:08:45;99029.38;;;5.32;62.25
40155;BME280;25875;48.202;16.334;2023-02-04T01:11:12;99040.31;;;5.43;61.96
40155;BME280;25875;48.202;16.334;2023-02-04T01:13:39;99049.00;;;5.45;61.61
40155;BME280;25875;48.202;16.334;2023-02-04T01:16:07;99031.47;;;5.45;61.36
40155;BME280;25875;48.202;16.334;2023-02-04T01:18:34;99040.13;;;5.48;61.46
40155;BME280;25875;48.202;16.334;2023-02-04T01:21:01;99040.13;;;5.48;61.04
40155;BME280;25875;48.202;16.334;2023-02-04T01:23:27;99035.63;;;5.51;61.33
40155;BME280;25875;48.202;16.334;2023-02-04T01:25:54;99047.78;;;5.54;61.92
40155;BME280;25875;48.202;16.334;2023-02-04T01:28:21;99034.56;;;5.55;61.74
40155;BME280;25875;48.202;16.334;2023-02-04T01:30:48;99030.22;;;5.54;61.54
40155;BME280;25875;48.202;16.334;2023-02-04T01:33:16;99002.00;;;5.37;62.05
40155;BME280;25875;48.202;16.334;2023-02-04T01:35:43;99021.50;;;5.54;62.40
40155;BME280;25875;48.202;16.334;2023-02-04T01:38:10;99056.59;;;5.53;62.34
40155;BME280;25875;48.202;16.334;2023-02-04T01:40:37;98943.19;;;4.96;62.52
40155;BME280;25875;48.202;16.334;2023-02-04T01:43:05;99030.28;;;5.53;62.60
40155;BME280;25875;48.202;16.334;2023-02-04T01:45:32;99032.00;;;5.54;62.60
40155;BME280;25875;48.202;16.334;2023-02-04T01:48:00;99042.53;;;5.54;62.75
40155;BME280;25875;48.202;16.334;2023-02-04T01:50:29;99045.28;;;5.51;62.72
40155;BME280;25875;48.202;16.334;2023-02-04T01:52:57;99027.66;;;5.53;63.03
40155;BME280;25875;48.202;16.334;2023-02-04T01:55:25;99037.38;;;5.51;63.02
40155;BME280;25875;48.202;16.334;2023-02-04T01:57:53;99045.34;;;5.49;63.29
40155;BME280;25875;48.202;16.334;2023-02-04T02:00:23;99036.66;;;5.47;63.19
40155;BME280;25875;48.202;16.334;2023-02-04T02:02:51;99033.97;;;5.49;63.29
40155;BME280;25875;48.202;16.334;2023-02-04T02:05:20;99038.41;;;5.47;63.23
40155;BME280;25875;48.202;16.334;2023-02-04T02:07:50;98875.78;;;4.52;63.10
40155;BME280;25875;48.202;16.334;2023-02-04T02:10:18;99031.56;;;5.42;63.44
40155;BME280;25875;48.202;16.334;2023-02-04T02:12:45;99038.53;;;5.43;63.31
40155;BME280;25875;48.202;16.334;2023-02-04T02:15:15;99034.19;;;5.42;63.04
40155;BME280;25875;48.202;16.334;2023-02-04T02:17:42;99028.03;;;5.43;62.74
40155;BME280;25875;48.202;16.334;2023-02-04T02:20:12;99023.69;;;5.42;61.71
40155;BME280;25875;48.202;16.334;2023-02-04T02:22:46;99000.41;;;5.33;61.51
40155;BME280;25875;48.202;16.334;2023-02-04T02:25:17;99020.94;;;5.45;61.74
40155;BME280;25875;48.202;16.334;2023-02-04T02:27:44;99015.56;;;5.49;61.80
40155;BME280;25875;48.202;16.334;2023-02-04T02:30:13;99035.72;;;5.48;60.81
40155;BME280;25875;48.202;16.334;2023-02-04T02:32:42;99031.22;;;5.52;61.33
40155;BME280;25875;48.202;16.334;2023-02-04T02:35:10;99036.34;;;5.55;60.99
40155;BME280;25875;48.202;16.334;2023-02-04T02:37:36;99017.03;;;5.56;61.11
40155;BME280;25875;48.202;16.334;2023-02-04T02:40:04;99033.66;;;5.56;61.03
40155;BME280;25875;48.202;16.334;2023-02-04T02:42:33;99024.91;;;5.56;61.11
40155;BME280;25875;48.202;16.334;2023-02-04T02:45:02;98999.47;;;5.56;60.73
40155;BME280;25875;48.202;16.334;2023-02-04T02:47:31;99012.63;;;5.56;60.86
40155;BME280;25875;48.202;16.334;2023-02-04T02:49:58;99011.66;;;5.59;60.60
40155;BME280;25875;48.202;16.334;2023-02-04T02:52:25;99026.50;;;5.60;60.78
40155;BME280;25875;48.202;16.334;2023-02-04T02:54:52;99008.03;;;5.61;60.76
40155;BME280;25875;48.202;16.334;2023-02-04T02:57:20;99026.38;;;5.63;60.09
40155;BME280;25875;48.202;16.334;2023-02-04T02:59:49;99015.94;;;5.61;60.01
40155;BME280;25875;48.202;16.334;2023-02-04T03:02:19;98986.78;;;5.45;60.29
40155;BME280;25875;48.202;16.334;2023-02-04T03:04:50;99004.63;;;5.59;60.29
40155;BME280;25875;48.202;16.334;2023-02-04T03:07:20;99022.91;;;5.62;60.46
40155;BME280;25875;48.202;16.334;2023-02-04T03:09:48;99023.75;;;5.63;59.96
40155;BME280;25875;48.202;16.334;2023-02-04T03:12:17;99009.69;;;5.64;60.22
40155;BME280;25875;48.202;16.334;2023-02-04T03:14:44;99007.84;;;5.66;60.10
40155;BME280;25875;48.202;16.334;2023-02-04T03:17:12;99013.03;;;5.67;59.94
40155;BME280;25875;48.202;16.334;2023-02-04T03:19:39;99046.50;;;5.64;59.38
40155;BME280;25875;48.202;16.334;2023-02-04T03:22:06;99030.59;;;5.67;59.58
40155;BME280;25875;48.202;16.334;2023-02-04T03:24:34;99027.06;;;5.68;60.29
40155;BME280;25875;48.202;16.334;2023-02-04T03:27:01;99020.03;;;5.68;60.18
40155;BME280;25875;48.202;16.334;2023-02-04T03:29:28;99013.13;;;5.66;60.04
40155;BME280;25875;48.202;16.334;2023-02-04T03:31:55;99007.00;;;5.65;60.20
40155;BME280;25875;48.202;16.334;2023-02-04T03:34:25;99005.28;;;5.64;59.92
40155;BME280;25875;48.202;16.334;2023-02-04T03:36:52;98993.84;;;5.65;59.95
40155;BME280;25875;48.202;16.334;2023-02-04T03:39:19;99001.00;;;5.62;59.81
40155;BME280;25875;48.202;16.334;2023-02-04T03:41:45;99018.50;;;5.63;60.10
40155;BME280;25875;48.202;16.334;2023-02-04T03:44:12;99001.88;;;5.62;60.16
40155;BME280;25875;48.202;16.334;2023-02-04T03:46:39;99051.88;;;5.61;60.05
40155;BME280;25875;48.202;16.334;2023-02-04T03:49:06;99050.16;;;5.60;60.26
40155;BME280;25875;48.202;16.334;2023-02-04T03:51:34;99055.38;;;5.61;60.42
40155;BME280;25875;48.202;16.334;2023-02-04T03:54:00;99059.69;;;5.62;60.56
40155;BME280;25875;48.202;16.334;2023-02-04T03:56:28;99076.44;;;5.60;60.79
40155;BME280;25875;48.202;16.334;2023-02-04T03:58:55;99067.72;;;5.59;60.82
40155;BME280;25875;48.202;16.334;2023-02-04T04:01:22;99050.28;;;5.57;61.64
40155;BME280;25875;48.202;16.334;2023-02-04T04:03:49;99062.69;;;5.53;62.08
40155;BME280;25875;48.202;16.334;2023-02-04T04:06:15;99033.53;;;5.37;62.28
40155;BME280;25875;48.202;16.334;2023-02-04T04:08:43;99072.53;;;5.48;62.90
40155;BME280;25875;48.202;16.334;2023-02-04T04:11:10;99078.88;;;5.42;63.32
40155;BME280;25875;48.202;16.334;2023-02-04T04:13:37;99093.06;;;5.38;63.84
40155;BME280;25875;48.202;16.334;2023-02-04T04:16:04;99126.47;;;5.35;64.17
40155;BME280;25875;48.202;16.334;2023-02-04T04:18:32;99112.72;;;5.28;64.91
40155;BME280;25875;48.202;16.334;2023-02-04T04:20:59;99147.38;;;5.15;65.39
40155;BME280;25875;48.202;16.334;2023-02-04T04:23:26;99158.50;;;4.98;66.16
40155;BME280;25875;48.202;16.334;2023-02-04T04:25:54;99173.00;;;4.83;66.76
40155;BME280;25875;48.202;16.334;2023-02-04T04:28:21;99165.44;;;4.74;67.55
40155;BME280;25875;48.202;16.334;2023-02-04T04:30:47;99184.88;;;4.68;67.79
40155;BME280;25875;48.202;16.334;2023-02-04T04:33:14;99193.88;;;4.61;68.08
40155;BME280;25875;48.202;16.334;2023-02-04T04:35:41;99203.59;;;4.58;68.17
40155;BME280;25875;48.202;16.334;2023-02-04T04:38:07;99209.81;;;4.55;68.58
40155;BME280;25875;48.202;16.334;2023-02-04T04:40:34;99225.56;;;4.55;68.35
40155;BME280;25875;48.202;16.334;2023-02-04T04:43:03;99157.81;;;4.13;68.34
40155;BME280;25875;48.202;16.334;2023-02-04T04:45:30;99262.47;;;4.51;68.44
40155;BME280;25875;48.202;16.334;2023-02-04T04:47:56;99269.72;;;4.42;68.01
40155;BME280;25875;48.202;16.334;2023-02-04T04:50:23;99221.22;;;3.98;68.18
40155;BME280;25875;48.202;16.334;2023-02-04T04:52:50;99292.72;;;4.34;68.02
40155;BME280;25875;48.202;16.334;2023-02-04T04:55:17;99300.63;;;4.33;68.05
40155;BME280;25875;48.202;16.334;2023-02-04T04:57:44;99142.09;;;3.28;67.66
40155;BME280;25875;48.202;16.334;2023-02-04T05:00:14;99331.50;;;4.25;66.98
40155;BME280;25875;48.202;16.334;2023-02-04T05:02:42;99335.09;;;4.21;67.15
40155;BME280;25875;48.202;16.334;2023-02-04T05:05:08;99350.91;;;4.17;66.64
40155;BME280;25875;48.202;16.334;2023-02-04T05:07:35;99352.75;;;4.14;66.22
40155;BME280;25875;48.202;16.334;2023-02-04T05:10:02;99352.94;;;4.08;65.22
40155;BME280;25875;48.202;16.334;2023-02-04T05:12:29;99371.47;;;4.02;64.68
40155;BME280;25875;48.202;16.334;2023-02-04T05:14:57;99363.78;;;3.96;64.17
40155;BME280;25875;48.202;16.334;2023-02-04T05:17:25;99381.34;;;3.92;63.17
40155;BME280;25875;48.202;16.334;2023-02-04T05:19:52;98962.28;;;1.41;62.82
40155;BME280;25875;48.202;16.334;2023-02-04T05:22:19;99378.09;;;3.84;63.14
40155;BME280;25875;48.202;16.334;2023-02-04T05:24:45;99390.38;;;3.82;62.96
40155;BME280;25875;48.202;16.334;2023-02-04T05:27:12;99391.41;;;3.76;62.61
40155;BME280;25875;48.202;16.334;2023-02-04T05:29:39;99420.38;;;3.72;62.27
40155;BME280;25875;48.202;16.334;2023-02-04T05:32:06;99355.88;;;3.32;62.39
40155;BME280;25875;48.202;16.334;2023-02-04T05:34:34;99430.88;;;3.70;62.16
40155;BME280;25875;48.202;16.334;2023-02-04T05:37:01;99434.41;;;3.69;62.16
40155;BME280;25875;48.202;16.334;2023-02-04T05:39:27;99448.44;;;3.67;61.69
40155;BME280;25875;48.202;16.334;2023-02-04T05:41:54;99444.19;;;3.63;61.79
40155;BME280;25875;48.202;16.334;2023-02-04T05:44:21;99462.53;;;3.63;61.57
40155;BME280;25875;48.202;16.334;2023-02-04T05:46:48;99469.63;;;3.59;61.47
40155;BME280;25875;48.202;16.334;2023-02-04T05:49:14;99467.03;;;3.58;61.12
40155;BME280;25875;48.202;16.334;2023-02-04T05:51:42;99069.38;;;1.00;60.85
40155;BME280;25875;48.202;16.334;2023-02-04T05:54:09;99507.31;;;3.53;61.36
40155;BME280;25875;48.202;16.334;2023-02-04T05:56:36;99505.59;;;3.52;61.29
40155;BME280;25875;48.202;16.334;2023-02-04T05:59:03;99509.13;;;3.51;61.36
40155;BME280;25875;48.202;16.334;2023-02-04T06:01:29;99522.28;;;3.48;61.08
40155;BME280;25875;48.202;16.334;2023-02-04T06:03:56;99511.84;;;3.47;60.95
40155;BME280;25875;48.202;16.334;2023-02-04T06:06:23;99530.25;;;3.44;60.90
40155;BME280;25875;48.202;16.334;2023-02-04T06:08:51;99544.22;;;3.44;60.83
40155;BME280;25875;48.202;16.334;2023-02-04T06:11:18;99552.97;;;3.43;60.97
40155;BME280;25875;48.202;16.334;2023-02-04T06:13:45;99550.34;;;3.43;60.67
40155;BME280;25875;48.202;16.334;2023-02-04T06:16:12;99575.69;;;3.43;60.47
40155;BME280;25875;48.202;16.334;2023-02-04T06:18:38;98835.34;;;-1.08;60.42
40155;BME280;25875;48.202;16.334;2023-02-04T06:21:05;99598.38;;;3.44;60.67
40155;BME280;25875;48.202;16.334;2023-02-04T06:23:32;99615.91;;;3.42;60.60
40155;BME280;25875;48.202;16.334;2023-02-04T06:26:01;99625.50;;;3.41;60.40
40155;BME280;25875;48.202;16.334;2023-02-04T06:28:27;99627.28;;;3.41;60.35
40155;BME280;25875;48.202;16.334;2023-02-04T06:30:54;99635.19;;;3.38;60.26
40155;BME280;25875;48.202;16.334;2023-02-04T06:33:21;99642.22;;;3.36;60.25
40155;BME280;25875;48.202;16.334;2023-02-04T06:35:48;99641.38;;;3.35;60.25
40155;BME280;25875;48.202;16.334;2023-02-04T06:38:15;99648.41;;;3.33;60.18
40155;BME280;25875;48.202;16.334;2023-02-04T06:40:42;99663.31;;;3.30;60.25
40155;BME280;25875;48.202;16.334;2023-02-04T06:43:10;99637.53;;;3.10;60.20
40155;BME280;25875;48.202;16.334;2023-02-04T06:45:37;99695.69;;;3.27;60.11
40155;BME280;25875;48.202;16.334;2023-02-04T06:48:04;99679.28;;;3.17;60.05
40155;BME280;25875;48.202;16.334;2023-02-04T06:50:31;99682.88;;;3.12;59.94
40155;BME280;25875;48.202;16.334;2023-02-04T06:52:57;99701.00;;;3.23;59.85
40155;BME280;25875;48.202;16.334;2023-02-04T06:55:24;99713.31;;;3.19;59.88
40155;BME280;25875;48.202;16.334;2023-02-04T06:57:51;99711.59;;;3.16;59.82
40155;BME280;25875;48.202;16.334;2023-02-04T07:00:20;99727.38;;;3.13;59.19
40155;BME280;25875;48.202;16.334;2023-02-04T07:02:47;99758.84;;;3.12;59.82
40155;BME280;25875;48.202;16.334;2023-02-04T07:05:14;99751.91;;;3.09;59.61
40155;BME280;25875;48.202;16.334;2023-02-04T07:07:41;99778.13;;;3.08;59.40
40155;BME280;25875;48.202;16.334;2023-02-04T07:10:08;99778.16;;;3.06;59.56
40155;BME280;25875;48.202;16.334;2023-02-04T07:12:35;99787.81;;;3.03;59.51
40155;BME280;25875;48.202;16.334;2023-02-04T07:15:02;99795.66;;;3.03;59.59
40155;BME280;25875;48.202;16.334;2023-02-04T07:17:30;99821.03;;;2.99;59.58
40155;BME280;25875;48.202;16.334;2023-02-04T07:19:57;99821.06;;;2.98;59.91
40155;BME280;25875;48.202;16.334;2023-02-04T07:22:23;99765.97;;;2.53;59.76
40155;BME280;25875;48.202;16.334;2023-02-04T07:24:50;99830.69;;;2.97;59.65
40155;BME280;25875;48.202;16.334;2023-02-04T07:27:17;99859.53;;;2.94;59.65
40155;BME280;25875;48.202;16.334;2023-02-04T07:29:44;99845.59;;;2.92;59.58
40155;BME280;25875;48.202;16.334;2023-02-04T07:32:10;99878.81;;;2.88;59.57
40155;BME280;25875;48.202;16.334;2023-02-04T07:34:39;99882.31;;;2.87;59.39
40155;BME280;25875;48.202;16.334;2023-02-04T07:37:06;99904.16;;;2.86;58.99
40155;BME280;25875;48.202;16.334;2023-02-04T07:39:32;99899.00;;;2.80;58.61
40155;BME280;25875;48.202;16.334;2023-02-04T07:41:59;99918.28;;;2.76;58.11
40155;BME280;25875;48.202;16.334;2023-02-04T07:44:26;99914.84;;;2.73;58.30
40155;BME280;25875;48.202;16.334;2023-02-04T07:46:53;99929.59;;;2.77;58.29
40155;BME280;25875;48.202;16.334;2023-02-04T07:49:19;99954.06;;;2.76;57.35
40155;BME280;25875;48.202;16.334;2023-02-04T07:51:47;99943.59;;;2.76;57.36
40155;BME280;25875;48.202;16.334;2023-02-04T07:54:14;99982.88;;;2.73;57.77
40155;BME280;25875;48.202;16.334;2023-02-04T07:56:41;99973.34;;;2.69;58.35
40155;BME280;25875;48.202;16.334;2023-02-04T07:59:07;99996.94;;;2.66;58.51
40155;BME280;25875;48.202;16.334;2023-02-04T08:01:34;99999.56;;;2.66;59.01
40155;BME280;25875;48.202;16.334;2023-02-04T08:04:01;99641.44;;;0.52;59.03
40155;BME280;25875;48.202;16.334;2023-02-04T08:06:28;100023.16;;;2.63;59.26
40155;BME280;25875;48.202;16.334;2023-02-04T08:08:56;100023.19;;;2.60;59.62
40155;BME280;25875;48.202;16.334;2023-02-04T08:11:23;100049.34;;;2.60;59.86
40155;BME280;25875;48.202;16.334;2023-02-04T08:13:51;100038.91;;;2.58;59.74
40155;BME280;25875;48.202;16.334;2023-02-04T08:16:18;100058.06;;;2.60;59.35
40155;BME280;25875;48.202;16.334;2023-02-04T08:18:44;100056.34;;;2.58;58.90
40155;BME280;25875;48.202;16.334;2023-02-04T08:21:11;100075.56;;;2.55;58.92
40155;BME280;25875;48.202;16.334;2023-02-04T08:23:38;100079.03;;;2.57;59.13
40155;BME280;25875;48.202;16.334;2023-02-04T08:26:08;100074.72;;;2.54;58.16
40155;BME280;25875;48.202;16.334;2023-02-04T08:28:36;100083.41;;;2.58;58.05
40155;BME280;25875;48.202;16.334;2023-02-04T08:31:03;100048.63;;;2.48;58.14
40155;BME280;25875;48.202;16.334;2023-02-04T08:33:30;100079.59;;;2.85;57.61
40155;BME280;25875;48.202;16.334;2023-02-04T08:35:57;100009.50;;;2.38;57.22
40155;BME280;25875;48.202;16.334;2023-02-04T08:38:23;100108.06;;;3.11;56.90
40155;BME280;25875;48.202;16.334;2023-02-04T08:40:50;100104.41;;;3.23;56.41
40155;BME280;25875;48.202;16.334;2023-02-04T08:43:18;100105.97;;;3.36;56.03
40155;BME280;25875;48.202;16.334;2023-02-04T08:45:45;100131.16;;;3.46;55.88
40155;BME280;25875;48.202;16.334;2023-02-04T08:48:12;100131.06;;;3.52;55.40
40155;BME280;25875;48.202;16.334;2023-02-04T08:50:39;100144.19;;;3.52;55.16
40155;BME280;25875;48.202;16.334;2023-02-04T08:53:06;99884.41;;;2.01;55.30
40155;BME280;25875;48.202;16.334;2023-02-04T08:55:33;100124.69;;;3.70;55.26
40155;BME280;25875;48.202;16.334;2023-02-04T08:57:59;100146.34;;;3.84;54.89
40155;BME280;25875;48.202;16.334;2023-02-04T09:00:28;100149.59;;;3.98;54.55
40155;BME280;25875;48.202;16.334;2023-02-04T09:02:55;100152.94;;;4.09;54.28
40155;BME280;25875;48.202;16.334;2023-02-04T09:05:22;100171.84;;;4.31;54.21
40155;BME280;25875;48.202;16.334;2023-02-04T09:07:49;100167.22;;;4.45;53.92
40155;BME280;25875;48.202;16.334;2023-02-04T09:10:16;100171.38;;;4.57;53.87
40155;BME280;25875;48.202;16.334;2023-02-04T09:12:43;100180.94;;;4.61;53.82
40155;BME280;25875;48.202;16.334;2023-02-04T09:15:10;100110.19;;;4.03;53.86
40155;BME280;25875;48.202;16.334;2023-02-04T09:17:39;100204.69;;;4.54;53.82
40155;BME280;25875;48.202;16.334;2023-02-04T09:20:09;100214.50;;;4.44;53.91
40155;BME280;25875;48.202;16.334;2023-02-04T09:22:36;100226.03;;;4.34;54.46
40155;BME280;25875;48.202;16.334;2023-02-04T09:25:03;100234.84;;;4.30;54.69
40155;BME280;25875;48.202;16.334;2023-02-04T09:27:30;100235.81;;;4.24;54.60
40155;BME280;25875;48.202;16.334;2023-02-04T09:29:57;100248.13;;;4.17;54.98
40155;BME280;25875;48.202;16.334;2023-02-04T09:32:24;100269.22;;;4.10;54.80
40155;BME280;25875;48.202;16.334;2023-02-04T09:34:52;100177.50;;;3.44;54.71
40155;BME280;25875;48.202;16.334;2023-02-04T09:37:19;100281.75;;;3.88;54.78
40155;BME280;25875;48.202;16.334;2023-02-04T09:39:45;100290.63;;;3.78;54.59
40155;BME280;25875;48.202;16.334;2023-02-04T09:42:13;100289.81;;;3.73;54.58
40155;BME280;25875;48.202;16.334;2023-02-04T09:44:40;100304.72;;;3.69;54.49
40155;BME280;25875;48.202;16.334;2023-02-04T09:47:10;100310.06;;;3.62;54.48
40155;BME280;25875;48.202;16.334;2023-02-04T09:49:42;100301.38;;;3.57;53.86
40155;BME280;25875;48.202;16.334;2023-02-04T09:52:14;100281.56;;;3.33;53.35
40155;BME280;25875;48.202;16.334;2023-02-04T09:54:42;100308.47;;;3.47;53.94
40155;BME280;25875;48.202;16.334;2023-02-04T09:57:13;100310.28;;;3.42;53.49
40155;BME280;25875;48.202;16.334;2023-02-04T09:59:41;100298.09;;;3.39;54.03
40155;BME280;25875;48.202;16.334;2023-02-04T10:02:18;100324.34;;;3.35;52.16
40155;BME280;25875;48.202;16.334;2023-02-04T10:04:47;100320.88;;;3.31;53.70
40155;BME280;25875;48.202;16.334;2023-02-04T10:07:16;100322.66;;;3.28;53.11
40155;BME280;25875;48.202;16.334;2023-02-04T10:09:47;100333.13;;;3.29;53.53
40155;BME280;25875;48.202;16.334;2023-02-04T10:12:15;100327.94;;;3.25;53.38
40155;BME280;25875;48.202;16.334;2023-02-04T10:14:42;100353.28;;;3.23;53.41
40155;BME280;25875;48.202;16.334;2023-02-04T10:17:09;100345.53;;;3.10;52.88
40155;BME280;25875;48.202;16.334;2023-02-04T10:19:37;100373.38;;;3.20;52.71
40155;BME280;25875;48.202;16.334;2023-02-04T10:22:10;100377.78;;;3.17;51.10
40155;BME280;25875;48.202;16.334;2023-02-04T10:24:42;100380.41;;;3.17;52.55
40155;BME280;25875;48.202;16.334;2023-02-04T10:27:11;100374.28;;;3.19;52.25
40155;BME280;25875;48.202;16.334;2023-02-04T10:29:40;100389.94;;;3.26;52.67
40155;BME280;25875;48.202;16.334;2023-02-04T10:32:26;100382.00;;;3.35;48.73
40155;BME280;25875;48.202;16.334;2023-02-04T10:34:56;100378.44;;;3.40;51.35
40155;BME280;25875;48.202;16.334;2023-02-04T10:37:24;100384.38;;;3.58;51.43
40155;BME280;25875;48.202;16.334;2023-02-04T10:39:52;100375.53;;;3.68;51.32
40155;BME280;25875;48.202;16.334;2023-02-04T10:42:21;100393.72;;;3.83;51.05
40155;BME280;25875;48.202;16.334;2023-02-04T10:44:48;100373.44;;;3.97;50.92
40155;BME280;25875;48.202;16.334;2023-02-04T10:47:17;100376.75;;;4.11;50.36
40155;BME280;25875;48.202;16.334;2023-02-04T10:49:52;100269.06;;;3.56;47.77
40155;BME280;25875;48.202;16.334;2023-02-04T10:52:21;100374.59;;;4.44;49.52
40155;BME280;25875;48.202;16.334;2023-02-04T10:54:48;100373.44;;;4.65;49.42
40155;BME280;25875;48.202;16.334;2023-02-04T10:57:20;100369.59;;;4.86;48.17
40155;BME280;25875;48.202;16.334;2023-02-04T10:59:49;100365.06;;;4.98;48.69
40155;BME280;25875;48.202;16.334;2023-02-04T11:02:33;100375.53;;;5.00;45.99
40155;BME280;25875;48.202;16.334;2023-02-04T11:05:03;100355.47;;;4.96;49.02
40155;BME280;25875;48.202;16.334;2023-02-04T11:07:32;100384.47;;;4.90;49.23
40155;BME280;25875;48.202;16.334;2023-02-04T11:09:59;100395.06;;;4.82;49.48
40155;BME280;25875;48.202;16.334;2023-02-04T11:12:38;100301.47;;;4.16;47.66
40155;BME280;25875;48.202;16.334;2023-02-04T11:18:01;100396.47;;;4.44;49.42
40155;BME280;25875;48.202;16.334;2023-02-04T11:20:31;100407.13;;;4.34;51.67
40155;BME280;25875;48.202;16.334;2023-02-04T11:23:13;100401.13;;;4.23;49.84
40155;BME280;25875;48.202;16.334;2023-02-04T11:25:40;100399.41;;;4.20;52.27
40155;BME280;25875;48.202;16.334;2023-02-04T11:28:21;100394.16;;;4.22;50.82
40155;BME280;25875;48.202;16.334;2023-02-04T11:30:58;100400.09;;;4.34;50.68
40155;BME280;25875;48.202;16.334;2023-02-04T11:33:36;100387.63;;;4.52;49.64
40155;BME280;25875;48.202;16.334;2023-02-04T11:36:05;100297.94;;;4.19;51.15
40155;BME280;25875;48.202;16.334;2023-02-04T11:38:32;100389.75;;;4.85;50.77
40155;BME280;25875;48.202;16.334;2023-02-04T11:40:59;100384.31;;;4.99;50.34
40155;BME280;25875;48.202;16.334;2023-02-04T11:43:32;100383.28;;;5.07;48.39
40155;BME280;25875;48.202;16.334;2023-02-04T11:46:01;100386.72;;;5.12;49.70
40155;BME280;25875;48.202;16.334;2023-02-04T11:48:29;100388.50;;;5.10;49.67
40155;BME280;25875;48.202;16.334;2023-02-04T11:50:58;100414.03;;;5.02;49.99
40155;BME280;25875;48.202;16.334;2023-02-04T11:53:28;100428.19;;;4.94;49.68
40155;BME280;25875;48.202;16.334;2023-02-04T11:55:55;100437.94;;;4.82;50.25
40155;BME280;25875;48.202;16.334;2023-02-04T11:58:23;100421.66;;;4.59;50.10
40155;BME280;25875;48.202;16.334;2023-02-04T12:00:52;100442.53;;;4.67;49.89
40155;BME280;25875;48.202;16.334;2023-02-04T12:03:22;100452.31;;;4.57;49.66
40155;BME280;25875;48.202;16.334;2023-02-04T12:05:49;100465.53;;;4.49;49.93
40155;BME280;25875;48.202;16.334;2023-02-04T12:08:30;100463.97;;;4.33;47.67
40155;BME280;25875;48.202;16.334;2023-02-04T12:11:09;100467.56;;;4.28;46.58
40155;BME280;25875;48.202;16.334;2023-02-04T12:13:46;100477.25;;;4.18;47.10
40155;BME280;25875;48.202;16.334;2023-02-04T12:16:15;100477.31;;;4.12;49.33
40155;BME280;25875;48.202;16.334;2023-02-04T12:18:42;100479.13;;;4.08;49.75
40155;BME280;25875;48.202;16.334;2023-02-04T12:21:09;100473.03;;;4.05;49.55
40155;BME280;25875;48.202;16.334;2023-02-04T12:23:35;100454.72;;;4.00;49.70
40155;BME280;25875;48.202;16.334;2023-02-04T12:26:03;100459.94;;;4.03;49.70
40155;BME280;25875;48.202;16.334;2023-02-04T12:28:29;100380.13;;;3.47;49.22
40155;BME280;25875;48.202;16.334;2023-02-04T12:30:56;100456.53;;;3.95;49.57
40155;BME280;25875;48.202;16.334;2023-02-04T12:33:25;100453.94;;;3.91;49.49
40155;BME280;25875;48.202;16.334;2023-02-04T12:35:51;100459.19;;;3.91;49.69
40155;BME280;25875;48.202;16.334;2023-02-04T12:38:18;100460.09;;;3.88;49.70
40155;BME280;25875;48.202;16.334;2023-02-04T12:40:45;100473.25;;;3.85;49.53
40155;BME280;25875;48.202;16.334;2023-02-04T12:43:12;100474.13;;;3.82;49.19
40155;BME280;25875;48.202;16.334;2023-02-04T12:45:39;100469.00;;;3.72;48.51
40155;BME280;25875;48.202;16.334;2023-02-04T12:48:10;100489.09;;;3.71;48.36
40155;BME280;25875;48.202;16.334;2023-02-04T12:50:38;100484.69;;;3.78;47.59
40155;BME280;25875;48.202;16.334;2023-02-04T12:53:05;100458.34;;;3.89;47.75
40155;BME280;25875;48.202;16.334;2023-02-04T12:55:32;100432.25;;;3.75;47.65
40155;BME280;25875;48.202;16.334;2023-02-04T12:57:59;100465.09;;;4.11;47.48
40155;BME280;25875;48.202;16.334;2023-02-04T13:00:25;100464.09;;;4.24;47.32
40155;BME280;25875;48.202;16.334;2023-02-04T13:02:52;100471.91;;;4.30;47.08